createdAt,value
2022-09-06T00:01:11.853Z,100.00
2022-09-06T00:03:42.039Z,100.00
2022-09-06T00:06:13.056Z,100.00
2022-09-06T00:08:42.058Z,100.00
2022-09-06T00:11:10.603Z,100.00
2022-09-06T00:13:39.517Z,100.00
2022-09-06T00:16:10.357Z,100.00
2022-09-06T00:18:38.796Z,100.00
2022-09-06T00:21:17.118Z,100.00
2022-09-06T00:23:45.749Z,100.00
2022-09-06T00:26:14.389Z,100.00
2022-09-06T00:28:43.403Z,100.00
2022-09-06T00:31:14.106Z,100.00
2022-09-06T00:33:42.824Z,100.00
2022-09-06T00:36:13.698Z,100.00
2022-09-06T00:38:43.073Z,100.00
2022-09-06T00:41:14.961Z,100.00
2022-09-06T00:43:43.721Z,100.00
2022-09-06T00:46:22.539Z,100.00
2022-09-06T00:48:58.320Z,100.00
2022-09-06T00:51:31.653Z,100.00
2022-09-06T00:54:03.742Z,100.00
2022-09-06T00:56:34.243Z,100.00
2022-09-06T00:59:03.282Z,100.00
2022-09-06T01:01:31.734Z,100.00
2022-09-06T01:04:00.891Z,100.00
2022-09-06T01:06:42.886Z,100.00
2022-09-06T01:09:24.489Z,100.00
2022-09-06T01:12:06.106Z,100.00
2022-09-06T01:14:52.769Z,100.00
2022-09-06T01:17:33.015Z,100.00
2022-09-06T01:20:41.384Z,100.00
2022-09-06T01:24:12.266Z,100.00
2022-09-06T01:27:27.200Z,100.00
2022-09-06T01:30:01.091Z,100.00
2022-09-06T01:32:43.164Z,100.00
2022-09-06T01:35:22.380Z,100.00
2022-09-06T01:37:50.867Z,100.00
2022-09-06T01:40:19.611Z,100.00
2022-09-06T01:42:49.849Z,100.00
2022-09-06T01:45:24.458Z,100.00
2022-09-06T01:48:06.372Z,100.00
2022-09-06T01:50:58.551Z,100.00
2022-09-06T01:53:51.133Z,100.00
2022-09-06T01:56:33.322Z,100.00
2022-09-06T01:59:21.255Z,100.00
2022-09-06T02:02:04.851Z,100.00
2022-09-06T02:04:41.783Z,100.00
2022-09-06T02:07:20.078Z,100.00
2022-09-06T02:09:54.745Z,100.00
2022-09-06T02:12:26.693Z,100.00
2022-09-06T02:15:01.044Z,100.00
2022-09-06T02:17:36.614Z,100.00
2022-09-06T02:20:10.581Z,100.00
2022-09-06T02:22:43.180Z,100.00
2022-09-06T02:25:17.787Z,100.00
2022-09-06T02:27:46.363Z,100.00
2022-09-06T02:30:14.956Z,100.00
2022-09-06T02:32:52.371Z,100.00
2022-09-06T02:35:20.645Z,100.00
2022-09-06T02:37:49.088Z,100.00
2022-09-06T02:40:18.408Z,100.00
2022-09-06T02:42:46.820Z,100.00
2022-09-06T02:45:15.293Z,100.00
2022-09-06T02:47:44.858Z,100.00
2022-09-06T02:50:13.253Z,100.00
2022-09-06T02:52:41.549Z,100.00
2022-09-06T02:55:11.233Z,100.00
2022-09-06T02:57:39.582Z,100.00
2022-09-06T03:00:09.231Z,100.00
2022-09-06T03:02:37.782Z,100.00
2022-09-06T03:05:08.713Z,100.00
2022-09-06T03:07:37.058Z,100.00
2022-09-06T03:10:06.182Z,100.00
2022-09-06T03:12:34.451Z,100.00
2022-09-06T03:15:02.711Z,100.00
2022-09-06T03:17:31.213Z,100.00
2022-09-06T03:19:59.468Z,100.00
2022-09-06T03:22:29.128Z,100.00
2022-09-06T03:24:57.580Z,100.00
2022-09-06T03:27:26.933Z,100.00
2022-09-06T03:29:55.177Z,100.00
2022-09-06T03:32:23.528Z,100.00
2022-09-06T03:34:52.123Z,100.00
2022-09-06T03:37:20.453Z,100.00
2022-09-06T03:39:50.145Z,100.00
2022-09-06T03:42:18.476Z,100.00
2022-09-06T03:44:46.857Z,100.00
2022-09-06T03:47:19.301Z,100.00
2022-09-06T03:49:48.128Z,100.00
2022-09-06T03:52:16.500Z,100.00
2022-09-06T03:54:44.738Z,100.00
2022-09-06T03:57:14.509Z,100.00
2022-09-06T03:59:43.121Z,100.00
2022-09-06T04:02:11.543Z,100.00
2022-09-06T04:04:39.921Z,100.00
2022-09-06T04:07:08.182Z,100.00
2022-09-06T04:09:36.467Z,100.00
2022-09-06T04:12:05.450Z,100.00
2022-09-06T04:14:35.216Z,100.00
2022-09-06T04:17:03.514Z,100.00
2022-09-06T04:19:31.905Z,100.00
2022-09-06T04:22:00.215Z,100.00
2022-09-06T04:24:28.460Z,100.00
2022-09-06T04:26:56.786Z,100.00
2022-09-06T04:29:25.326Z,100.00
2022-09-06T04:31:55.103Z,100.00
2022-09-06T04:34:23.482Z,100.00
2022-09-06T04:36:51.814Z,100.00
2022-09-06T04:39:20.399Z,100.00
2022-09-06T04:41:48.676Z,100.00
2022-09-06T04:44:17.106Z,100.00
2022-09-06T04:46:45.426Z,100.00
2022-09-06T04:49:15.065Z,100.00
2022-09-06T04:51:43.383Z,100.00
2022-09-06T04:54:11.667Z,100.00
2022-09-06T04:56:39.952Z,100.00
2022-09-06T04:59:08.293Z,100.00
2022-09-06T05:01:36.823Z,100.00
2022-09-06T05:04:05.143Z,100.00
2022-09-06T05:06:34.793Z,100.00
2022-09-06T05:09:03.071Z,100.00
2022-09-06T05:11:31.407Z,100.00
2022-09-06T05:13:59.793Z,100.00
2022-09-06T05:16:28.289Z,100.00
2022-09-06T05:18:56.634Z,100.00
2022-09-06T05:21:24.952Z,100.00
2022-09-06T05:23:58.517Z,100.00
2022-09-06T05:26:27.110Z,100.00
2022-09-06T05:28:55.425Z,100.00
2022-09-06T05:31:29.149Z,100.00
2022-09-06T05:33:58.073Z,100.00
2022-09-06T05:36:27.669Z,100.00
2022-09-06T05:38:58.767Z,100.00
2022-09-06T05:41:27.822Z,100.00
2022-09-06T05:43:56.244Z,100.00
2022-09-06T05:46:24.691Z,100.00
2022-09-06T05:49:00.046Z,100.00
2022-09-06T05:51:28.535Z,100.00
2022-09-06T05:53:58.420Z,100.00
2022-09-06T05:56:26.752Z,100.00
2022-09-06T05:58:55.176Z,100.00
2022-09-06T06:01:26.650Z,100.00
2022-09-06T06:03:58.841Z,100.00
2022-09-06T06:06:29.268Z,100.00
2022-09-06T06:08:59.767Z,100.00
2022-09-06T06:11:29.556Z,100.00
2022-09-06T06:13:58.857Z,100.00
2022-09-06T06:16:27.578Z,100.00
2022-09-06T06:18:56.013Z,100.00
2022-09-06T06:21:26.261Z,100.00
2022-09-06T06:23:58.102Z,100.00
2022-09-06T06:26:29.236Z,100.00
2022-09-06T06:28:58.902Z,100.00
2022-09-06T06:31:27.299Z,100.00
2022-09-06T06:33:55.757Z,100.00
2022-09-06T06:36:25.802Z,100.00
2022-09-06T06:38:56.199Z,100.00
2022-09-06T06:41:28.559Z,100.00
2022-09-06T06:43:58.946Z,100.00
2022-09-06T06:46:31.170Z,100.00
2022-09-06T06:48:59.705Z,100.00
2022-09-06T06:51:30.137Z,100.00
2022-09-06T06:53:58.940Z,100.00
2022-09-06T06:56:31.669Z,100.00
2022-09-06T06:59:02.511Z,100.00
2022-09-06T07:01:33.290Z,100.00
2022-09-06T07:04:01.766Z,100.00
2022-09-06T07:09:20.823Z,100.00
2022-09-06T07:11:51.285Z,100.00
2022-09-06T07:14:20.367Z,100.00
2022-09-06T07:16:49.353Z,100.00
2022-09-06T07:22:06.981Z,100.00
2022-09-06T07:24:36.682Z,100.00
2022-09-06T07:29:55.045Z,100.00
2022-09-06T07:32:23.366Z,100.00
2022-09-06T07:34:51.632Z,100.00
2022-09-06T07:37:20.045Z,100.00
2022-09-06T07:39:48.366Z,100.00
2022-09-06T07:42:18.127Z,100.00
2022-09-06T07:44:46.568Z,100.00
2022-09-06T07:53:11.081Z,100.00
2022-09-06T07:55:43.086Z,100.00
2022-09-06T07:58:12.781Z,100.00
2022-09-06T08:00:41.976Z,100.00
2022-09-06T08:03:10.359Z,100.00
2022-09-06T08:11:15.705Z,100.00
2022-09-06T08:13:45.604Z,100.00
2022-09-06T08:16:16.986Z,100.00
2022-09-06T08:18:45.504Z,100.00
2022-09-06T08:21:15.532Z,100.00
2022-09-06T08:23:49.532Z,100.00
2022-09-06T08:26:18.812Z,100.00
2022-09-06T08:28:49.045Z,100.00
2022-09-06T08:31:19.693Z,100.00
2022-09-06T08:33:48.219Z,100.00
2022-09-06T08:36:17.037Z,100.00
2022-09-06T08:38:45.673Z,100.00
2022-09-06T08:41:27.346Z,100.00
2022-09-06T08:46:57.796Z,100.00
2022-09-06T08:49:28.861Z,100.00
2022-09-06T08:52:16.774Z,100.00
2022-09-06T08:54:55.373Z,100.00
2022-09-06T08:57:41.898Z,100.00
2022-09-06T09:00:15.061Z,100.00
2022-09-06T09:02:47.005Z,100.00
2022-09-06T09:05:25.625Z,100.00
2022-09-06T09:08:07.220Z,100.00
2022-09-06T09:10:43.967Z,100.00
2022-09-06T09:13:33.974Z,100.00
2022-09-06T09:16:03.898Z,100.00
2022-09-06T09:18:36.367Z,99.20
2022-09-06T09:21:05.529Z,100.00
2022-09-06T09:23:33.931Z,100.00
2022-09-06T09:26:06.929Z,95.07
2022-09-06T09:28:35.820Z,94.75
2022-09-06T09:31:07.272Z,97.63
2022-09-06T09:33:38.886Z,92.91
2022-09-06T09:36:12.163Z,98.17
2022-09-06T09:38:44.957Z,93.97
2022-09-06T09:41:29.005Z,99.08
2022-09-06T09:44:04.439Z,100.00
2022-09-06T09:46:40.281Z,100.00
2022-09-06T09:49:11.009Z,94.92
2022-09-06T09:51:41.363Z,91.29
2022-09-06T09:54:12.148Z,87.58
2022-09-06T09:56:49.337Z,89.65
2022-09-06T09:59:25.076Z,85.09
2022-09-06T10:01:59.943Z,83.85
2022-09-06T10:07:13.124Z,89.96
2022-09-06T10:09:46.328Z,92.57
2022-09-06T10:12:20.167Z,86.31
2022-09-06T10:14:50.609Z,89.28
2022-09-06T10:17:32.732Z,88.09
2022-09-06T10:20:04.688Z,86.90
2022-09-06T10:22:40.759Z,88.99
2022-09-06T10:25:43.953Z,87.17
2022-09-06T10:28:36.462Z,86.07
2022-09-06T10:32:02.597Z,86.40
2022-09-06T10:35:04.877Z,87.42
2022-09-06T10:38:05.671Z,82.53
2022-09-06T10:40:42.661Z,77.81
2022-09-06T10:43:19.188Z,76.15
2022-09-06T10:45:58.157Z,76.11
2022-09-06T10:48:31.037Z,77.61
2022-09-06T10:51:07.311Z,81.61
2022-09-06T10:53:48.288Z,71.93
2022-09-06T10:56:23.410Z,68.92
2022-09-06T11:02:02.296Z,65.27
2022-09-06T11:07:31.993Z,64.45
2022-09-06T11:10:08.689Z,63.91
2022-09-06T11:12:43.757Z,63.08
2022-09-06T11:15:16.686Z,65.64
2022-09-06T11:17:50.644Z,61.49
2022-09-06T11:20:31.801Z,62.34
2022-09-06T11:23:40.741Z,53.56
2022-09-06T11:26:35.374Z,57.58
2022-09-06T11:29:09.241Z,50.50
2022-09-06T11:34:45.681Z,51.21
2022-09-06T11:37:26.515Z,48.71
2022-09-06T11:40:29.447Z,49.46
2022-09-06T11:43:18.387Z,47.31
2022-09-06T11:45:50.284Z,49.37
2022-09-06T11:48:56.685Z,49.74
2022-09-06T11:51:40.081Z,48.20
2022-09-06T11:54:28.044Z,47.36
2022-09-06T11:57:03.579Z,47.11
2022-09-06T11:59:43.127Z,44.11
2022-09-06T12:02:36.317Z,44.37
2022-09-06T12:05:27.248Z,42.95
2022-09-06T12:08:32.900Z,43.24
2022-09-06T12:11:21.472Z,45.34
2022-09-06T12:13:57.725Z,46.01
2022-09-06T12:16:46.440Z,40.05
2022-09-06T12:19:52.731Z,43.95
2022-09-06T12:22:53.630Z,44.07
2022-09-06T12:25:55.307Z,46.57
2022-09-06T12:28:36.182Z,45.18
2022-09-06T12:31:37.977Z,45.38
2022-09-06T12:34:14.948Z,43.02
2022-09-06T12:36:56.881Z,42.69
2022-09-06T12:39:25.798Z,41.00
2022-09-06T12:41:58.305Z,44.43
2022-09-06T12:44:35.585Z,44.04
2022-09-06T12:47:12.593Z,45.00
2022-09-06T12:49:41.175Z,46.65
2022-09-06T12:52:14.026Z,44.63
2022-09-06T12:54:48.491Z,43.51
2022-09-06T12:57:22.128Z,43.12
2022-09-06T12:59:53.674Z,41.58
2022-09-06T13:02:33.470Z,39.77
2022-09-06T13:05:06.614Z,40.25
2022-09-06T13:07:39.992Z,40.04
2022-09-06T13:10:08.834Z,38.98
2022-09-06T13:12:41.708Z,40.70
2022-09-06T13:15:17.979Z,41.13
2022-09-06T13:17:47.426Z,43.10
2022-09-06T13:20:25.083Z,39.47
2022-09-06T13:23:06.512Z,38.45
2022-09-06T13:25:34.984Z,37.81
2022-09-06T13:28:03.726Z,39.75
2022-09-06T13:30:49.058Z,39.23
2022-09-06T13:33:26.286Z,41.03
2022-09-06T13:36:17.437Z,37.72
2022-09-06T13:38:47.871Z,37.80
2022-09-06T13:41:42.192Z,38.86
2022-09-06T13:44:31.010Z,36.26
2022-09-06T13:46:59.495Z,36.66
2022-09-06T13:49:31.864Z,34.46
2022-09-06T13:52:02.510Z,34.90
2022-09-06T13:54:34.870Z,34.56
2022-09-06T13:57:03.477Z,32.17
2022-09-06T13:59:32.139Z,33.96
2022-09-06T14:02:10.196Z,33.16
2022-09-06T14:04:38.764Z,33.50
2022-09-06T14:07:07.151Z,32.44
2022-09-06T14:09:37.459Z,33.03
2022-09-06T14:12:06.867Z,30.36
2022-09-06T14:14:35.731Z,30.86
2022-09-06T14:17:04.196Z,31.82
2022-09-06T14:19:32.661Z,32.09
2022-09-06T14:22:01.823Z,31.84
2022-09-06T14:24:30.138Z,30.38
2022-09-06T14:26:59.857Z,31.92
2022-09-06T14:29:28.423Z,32.02
2022-09-06T14:31:56.535Z,31.75
2022-09-06T14:34:25.674Z,33.58
2022-09-06T14:36:53.950Z,32.57
2022-09-06T14:39:22.209Z,33.32
2022-09-06T14:41:50.561Z,32.93
2022-09-06T14:44:20.737Z,31.17
2022-09-06T14:46:56.950Z,33.07
2022-09-06T14:49:33.735Z,32.39
2022-09-06T14:52:02.822Z,31.85
2022-09-06T14:54:31.324Z,31.31
2022-09-06T14:56:59.736Z,31.59
2022-09-06T14:59:29.956Z,32.24
2022-09-06T15:01:58.461Z,32.39
2022-09-06T15:04:27.598Z,32.21
2022-09-06T15:06:56.062Z,32.11
2022-09-06T15:09:25.588Z,32.76
2022-09-06T15:11:54.898Z,31.88
2022-09-06T15:14:27.066Z,31.59
2022-09-06T15:17:00.226Z,32.24
2022-09-06T15:19:33.241Z,31.19
2022-09-06T15:22:03.940Z,31.10
2022-09-06T15:24:33.497Z,32.15
2022-09-06T15:27:03.020Z,32.83
2022-09-06T15:29:32.292Z,31.97
2022-09-06T15:32:02.728Z,32.58
2022-09-06T15:34:32.345Z,32.71
2022-09-06T15:37:01.853Z,32.85
2022-09-06T15:39:30.915Z,32.98
2022-09-06T15:42:04.040Z,33.47
2022-09-06T15:44:34.469Z,34.06
2022-09-06T15:47:05.047Z,33.91
2022-09-06T15:49:34.676Z,33.48
2022-09-06T15:52:06.250Z,33.18
2022-09-06T15:54:54.771Z,32.36
2022-09-06T15:57:25.888Z,32.21
2022-09-06T15:59:56.477Z,32.19
2022-09-06T16:02:30.195Z,33.03
2022-09-06T16:04:59.467Z,32.86
2022-09-06T16:07:31.889Z,34.00
2022-09-06T16:10:01.201Z,34.43
2022-09-06T16:12:30.072Z,34.55
2022-09-06T16:15:02.528Z,34.91
2022-09-06T16:17:33.965Z,33.97
2022-09-06T16:20:04.459Z,34.17
2022-09-06T16:22:34.221Z,33.65
2022-09-06T16:25:03.431Z,34.46
2022-09-06T16:27:32.881Z,34.10
2022-09-06T16:30:03.225Z,35.62
2022-09-06T16:32:33.451Z,38.06
2022-09-06T16:35:03.112Z,38.09
2022-09-06T16:37:37.696Z,36.79
2022-09-06T16:40:09.608Z,36.00
2022-09-06T16:42:38.862Z,34.70
2022-09-06T16:45:13.117Z,35.41
2022-09-06T16:47:43.857Z,34.83
2022-09-06T16:50:14.237Z,35.64
2022-09-06T16:52:43.088Z,36.23
2022-09-06T16:55:15.352Z,36.58
2022-09-06T16:57:44.931Z,36.11
2022-09-06T17:00:15.912Z,36.72
2022-09-06T17:02:47.659Z,36.41
2022-09-06T17:05:16.217Z,37.73
2022-09-06T17:07:44.716Z,39.24
2022-09-06T17:14:30.566Z,37.47
2022-09-06T17:17:19.174Z,39.99
2022-09-06T17:19:59.244Z,38.79
2022-09-06T17:22:28.014Z,41.17
2022-09-06T17:25:00.800Z,39.51
2022-09-06T17:27:29.699Z,39.92
2022-09-06T17:30:00.208Z,40.63
2022-09-06T17:32:29.096Z,41.10
2022-09-06T17:35:00.372Z,41.89
2022-09-06T17:37:32.687Z,43.00
2022-09-06T17:40:01.796Z,42.47
2022-09-06T17:42:31.579Z,42.62
2022-09-06T17:44:59.977Z,43.43
2022-09-06T17:47:28.593Z,44.83
2022-09-06T17:50:01.185Z,44.10
2022-09-06T17:52:54.417Z,44.61
2022-09-06T17:55:23.030Z,45.57
2022-09-06T17:57:51.537Z,49.68
2022-09-06T18:00:22.657Z,52.27
2022-09-06T18:02:51.355Z,51.18
2022-09-06T18:05:22.372Z,52.82
2022-09-06T18:07:54.409Z,53.47
2022-09-06T18:10:25.646Z,52.72
2022-09-06T18:12:54.299Z,51.33
2022-09-06T18:15:22.867Z,57.56
2022-09-06T18:17:51.660Z,60.82
2022-09-06T18:20:24.269Z,61.91
2022-09-06T18:22:52.908Z,60.88
2022-09-06T18:25:23.157Z,68.62
2022-09-06T18:28:13.437Z,66.31
2022-09-06T18:31:06.159Z,70.83
2022-09-06T18:33:37.961Z,69.81
2022-09-06T18:36:15.400Z,69.10
2022-09-06T18:38:44.479Z,68.48
2022-09-06T18:41:29.713Z,68.09
2022-09-06T18:44:02.447Z,69.18
2022-09-06T18:46:31.597Z,70.19
2022-09-06T18:49:00.598Z,69.85
2022-09-06T18:51:30.473Z,64.86
2022-09-06T18:54:02.413Z,66.87
2022-09-06T18:56:30.687Z,61.59
2022-09-06T18:59:02.081Z,61.82
2022-09-06T19:01:42.982Z,63.35
2022-09-06T19:04:17.371Z,68.12
2022-09-06T19:06:47.307Z,72.98
2022-09-06T19:09:18.084Z,67.69
2022-09-06T19:12:05.128Z,67.05
2022-09-06T19:15:22.357Z,71.17
2022-09-06T19:18:31.354Z,74.99
2022-09-06T19:21:12.313Z,71.12
2022-09-06T19:23:45.099Z,81.24
2022-09-06T19:26:17.581Z,82.54
2022-09-06T19:28:57.775Z,74.14
2022-09-06T19:31:45.393Z,77.10
2022-09-06T19:34:15.650Z,77.40
2022-09-06T19:36:46.960Z,79.82
2022-09-06T19:39:18.093Z,81.69
2022-09-06T19:41:47.581Z,79.28
2022-09-06T19:44:17.665Z,82.64
2022-09-06T19:46:51.074Z,81.78
2022-09-06T19:49:21.171Z,81.61
2022-09-06T19:51:51.203Z,81.73
2022-09-06T19:54:21.333Z,86.14
2022-09-06T19:56:49.784Z,81.09
2022-09-06T19:59:18.737Z,82.67
2022-09-06T20:01:48.203Z,83.14
2022-09-06T20:04:17.083Z,85.90
2022-09-06T20:06:45.976Z,87.13
2022-09-06T20:09:16.223Z,88.00
2022-09-06T20:11:46.374Z,89.42
2022-09-06T20:14:15.580Z,84.03
2022-09-06T20:16:44.115Z,83.79
2022-09-06T20:19:14.994Z,87.78
2022-09-06T20:21:44.683Z,86.41
2022-09-06T20:24:13.217Z,86.40
2022-09-06T20:26:42.132Z,86.79
2022-09-06T20:29:15.018Z,86.84
2022-09-06T20:31:44.686Z,86.42
2022-09-06T20:34:18.426Z,87.09
2022-09-06T20:36:47.161Z,87.96
2022-09-06T20:39:16.045Z,89.19
2022-09-06T20:41:44.362Z,88.66
2022-09-06T20:44:17.965Z,88.35
2022-09-06T20:46:46.375Z,90.04
2022-09-06T20:49:15.698Z,90.94
2022-09-06T20:51:44.855Z,92.84
2022-09-06T20:54:13.956Z,94.97
2022-09-06T20:56:44.137Z,95.54
2022-09-06T20:59:15.087Z,96.20
2022-09-06T21:01:46.014Z,96.50
2022-09-06T21:04:17.618Z,98.47
2022-09-06T21:06:46.834Z,98.94
2022-09-06T21:09:16.523Z,99.74
2022-09-06T21:11:45.775Z,99.45
2022-09-06T21:14:15.552Z,98.81
2022-09-06T21:16:44.229Z,98.92
2022-09-06T21:19:13.991Z,98.72
2022-09-06T21:21:42.966Z,97.67
2022-09-06T21:24:12.599Z,96.77
2022-09-06T21:26:43.026Z,96.41
2022-09-06T21:29:12.625Z,96.64
2022-09-06T21:31:42.830Z,98.50
2022-09-06T21:34:16.860Z,100.00
2022-09-06T21:36:47.813Z,100.00
2022-09-06T21:39:16.636Z,100.00
2022-09-06T21:41:46.453Z,100.00
2022-09-06T21:44:14.965Z,100.00
2022-09-06T21:46:44.806Z,100.00
2022-09-06T21:49:14.947Z,100.00
2022-09-06T21:51:44.608Z,100.00
2022-09-06T21:54:13.289Z,100.00
2022-09-06T21:56:41.799Z,100.00
2022-09-06T21:59:11.500Z,100.00
2022-09-06T22:01:44.920Z,100.00
2022-09-06T22:04:15.497Z,100.00
2022-09-06T22:06:43.951Z,100.00
2022-09-06T22:09:14.600Z,100.00
2022-09-06T22:11:45.357Z,100.00
2022-09-06T22:14:15.906Z,100.00
2022-09-06T22:16:44.731Z,100.00
2022-09-06T22:19:14.829Z,100.00
2022-09-06T22:21:43.188Z,100.00
2022-09-06T22:24:14.196Z,100.00
2022-09-06T22:26:43.639Z,100.00
2022-09-06T22:29:15.028Z,100.00
2022-09-06T22:31:43.843Z,100.00
2022-09-06T22:34:12.682Z,100.00
2022-09-06T22:36:50.235Z,100.00
2022-09-06T22:39:18.608Z,100.00
2022-09-06T22:41:47.077Z,100.00
2022-09-06T22:44:15.760Z,100.00
2022-09-06T22:46:44.157Z,100.00
2022-09-06T22:49:13.706Z,100.00
2022-09-06T22:51:42.072Z,100.00
2022-09-06T22:54:12.183Z,100.00
2022-09-06T22:56:43.011Z,100.00
2022-09-06T22:59:11.345Z,100.00
2022-09-06T23:01:39.840Z,100.00
2022-09-06T23:04:09.203Z,100.00
2022-09-06T23:06:38.757Z,100.00
2022-09-06T23:09:07.462Z,100.00
2022-09-06T23:11:37.266Z,100.00
2022-09-06T23:14:06.139Z,100.00
2022-09-06T23:16:34.588Z,100.00
2022-09-06T23:19:02.991Z,100.00
2022-09-06T23:21:31.452Z,100.00
2022-09-06T23:24:00.301Z,100.00
2022-09-06T23:26:31.607Z,100.00
2022-09-06T23:29:01.588Z,100.00
2022-09-06T23:31:33.004Z,100.00
2022-09-06T23:34:04.797Z,100.00
2022-09-06T23:36:33.639Z,100.00
2022-09-06T23:39:02.529Z,100.00
2022-09-06T23:41:31.137Z,100.00
2022-09-06T23:44:01.693Z,100.00
2022-09-06T23:46:30.953Z,100.00
2022-09-06T23:48:59.852Z,100.00
2022-09-06T23:51:28.454Z,100.00
2022-09-06T23:53:58.281Z,100.00
2022-09-06T23:56:26.968Z,100.00
2022-09-06T23:58:55.561Z,100.00
